Time;durP1;ratioP1;P1;durP2;ratioP2;P2;SDS_P1;SDS_P2;PMS_P1;PMS_P2;Temp;Humidity;BMP_temperature;BMP_pressure;BME280_temperature;BME280_humidity;BME280_pressure;Samples;Min_cycle;Max_cycle;Signal;HPM_P1;HPM_P2
2022/01/06 00:02:55;;;;;;;7.70;3.50;;;;;;;1.14;81.52;97537.59;219943;1278;25393;-73
2022/01/06 00:09:20;;;;;;;;;;;;;;;;;;;;;
2022/01/06 00:29:49;;;;;;;6.20;2.00;;;;;;;0.94;81.73;97512.61;219998;1279;23938;-74
2022/01/06 00:42:56;;;;;;;;;;;;;;;;;;;;;
2022/01/06 00:49:31;;;;;;;5.30;2.20;;;;;;;0.88;81.24;97518.85;220096;1279;22676;-74
2022/01/06 00:55:20;;;;;;;;;;;;;;;0.92;81.00;97526.99;219826;1279;25376;-74
2022/01/06 01:01:49;;;;;;;3.50;2.10;;;;;;;0.94;81.23;97530.59;220125;1279;22598;-74
2022/01/06 01:15:22;;;;;;;4.60;2.00;;;;;;;1.01;81.24;97532.64;219481;1281;24849;-73
2022/01/06 01:34:39;;;;;;;;;;;;;;;;;;;;;
2022/01/06 01:39:58;;;;;;;3.10;1.30;;;;;;;1.14;80.30;97515.64;220124;1279;22591;-74
2022/01/06 01:52:08;;;;;;;3.10;1.30;;;;;;;1.10;80.86;97538.37;219501;1279;24288;-74
2022/01/06 01:58:41;;;;;;;4.80;1.90;;;;;;;1.18;80.59;97545.05;220072;1279;22551;-74
2022/01/06 02:04:55;;;;;;;;;;;;;;;;;;;;;
2022/01/06 02:11:29;;;;;;;3.50;1.20;;;;;;;1.39;80.91;97561.92;219380;1281;22616;-74
2022/01/06 02:24:29;;;;;;;2.20;1.50;;;;;;;1.49;79.77;97559.11;220050;1279;22543;-75
2022/01/06 02:30:09;;;;;;;;;;;;;;;;;;;;;
2022/01/06 02:36:15;;;;;;;;;;;;;;;;;;;;;
2022/01/06 02:42:50;;;;;;;3.30;2.00;;;;;;;1.51;80.04;97566.03;219922;1279;22572;-74
2022/01/06 02:49:26;;;;;;;5.50;2.40;;;;;;;1.50;79.84;97571.98;219567;1279;23788;-74
2022/01/06 02:56:00;;;;;;;;;;;;;;;;;;;;;
2022/01/06 03:02:12;;;;;;;5.30;2.60;;;;;;;1.47;79.72;97588.92;219966;1278;22798;-75
2022/01/06 03:09:06;;;;;;;5.40;2.50;;;;;;;1.46;79.67;97587.45;219968;1279;25394;-73
2022/01/06 03:16:04;;;;;;;;;;;;;;;;;;;;;
2022/01/06 03:23:00;;;;;;;;;;;;;;;;;;;;;
2022/01/06 03:36:40;;;;;;;4.80;1.70;;;;;;;1.49;79.48;97596.63;219770;1279;22570;-75
2022/01/06 03:43:52;;;;;;;;;;;;;;;;;;;;;
2022/01/06 03:50:57;;;;;;;5.30;2.90;;;;;;;1.43;80.03;97599.77;219707;1279;22603;-74
2022/01/06 03:58:11;;;;;;;;;;;;;;;;;;;;;
2022/01/06 04:11:27;;;;;;;;;;;;;;;;;;;;;
2022/01/06 04:18:24;;;;;;;6.90;2.70;;;;;;;1.41;80.51;97612.23;220129;1279;24214;-74
2022/01/06 04:31:48;;;;;;;2.90;1.80;;;;;;;1.42;80.50;97617.40;219437;1281;22579;-74
2022/01/06 04:52:01;;;;;;;5.10;1.30;;;;;;;1.54;80.88;97620.30;220602;1279;25273;-74
2022/01/06 04:58:20;;;;;;;;;;;;;;;;;;;;;
2022/01/06 05:05:03;;;;;;;;;;;;;;;;;;;;;
2022/01/06 05:11:34;;;;;;;2.20;1.50;;;;;;;1.76;79.98;97637.45;220510;1279;24328;-74
2022/01/06 05:17:33;;;;;;;;;;;;;;;;;;;;;
2022/01/06 05:24:09;;;;;;;;;;;;;;;;;;;;;
2022/01/06 05:30:03;;;;;;;3.90;2.30;;;;;;;1.71;80.21;97653.16;220828;1279;22648;-74
2022/01/06 05:35:50;;;;;;;5.00;1.80;;;;;;;1.69;80.26;97662.83;220843;1279;24419;-74
2022/01/06 05:41:53;;;;;;;;;;;;;;;;;;;;;
2022/01/06 05:48:12;;;;;;;7.00;2.50;;;;;;;1.65;80.37;97671.63;220636;1279;22587;-74
2022/01/06 05:54:15;;;;;;;5.30;3.00;;;;;;;1.65;80.30;97680.60;220608;1279;24272;-74
2022/01/06 06:00:21;;;;;;;5.60;2.80;;;;;;;1.62;80.37;97687.96;220723;1279;25291;-73
2022/01/06 06:06:21;;;;;;;4.60;2.60;;;;;;;1.60;80.68;97696.25;220862;1279;23532;-73
2022/01/06 06:18:38;;;;;;;6.20;2.20;;;;;;;1.62;80.75;97708.55;220747;1279;23560;-73
2022/01/06 06:24:05;;;;;;;5.20;2.80;;;;;;;1.60;80.96;97708.66;220939;1279;22611;-74
2022/01/06 06:29:23;;;;;;;4.00;2.20;;;;;;;1.61;81.01;97723.08;220856;1279;24561;-73
2022/01/06 06:47:04;;;;;;;5.20;2.20;;;;;;;1.73;81.38;97741.48;220405;1279;22737;-75
2022/01/06 06:53:11;;;;;;;5.90;2.90;;;;;;;1.76;81.19;97748.45;220726;1279;25085;-74
2022/01/06 07:10:38;;;;;;;7.00;2.70;;;;;;;1.83;81.27;97762.91;220754;1279;22569;-75
2022/01/06 07:16:32;;;;;;;3.90;2.10;;;;;;;1.86;81.43;97774.02;220864;1279;22557;-74
2022/01/06 07:22:01;;;;;;;2.80;1.90;;;;;;;1.90;81.51;97772.09;220631;1279;22714;-74
2022/01/06 07:27:40;;;;;;;4.10;2.20;;;;;;;1.92;81.33;97778.21;220726;1279;22583;-74
2022/01/06 07:33:12;;;;;;;5.40;2.50;;;;;;;1.95;81.38;97785.80;220854;1279;22597;-74
2022/01/06 07:38:44;;;;;;;;;;;;;;;;;;;;;
2022/01/06 07:43:55;;;;;;;3.40;2.10;;;;;;;2.12;81.57;97802.84;220765;1279;22708;-74
2022/01/06 07:50:12;;;;;;;3.60;2.50;;;;;;;2.21;81.16;97801.41;220642;1279;22715;-74
2022/01/06 07:56:42;;;;;;;;;;;;;;;;;;;;;
2022/01/06 08:03:06;;;;;;;;;;;;;;;;;;;;;
2022/01/06 08:16:00;;;;;;;;;;;;;;;;;;;;;
2022/01/06 08:29:00;;;;;;;;;;;;;;;;;;;;;
2022/01/06 08:34:54;;;;;;;4.20;2.50;;;;;;;2.71;80.52;97874.48;220826;1279;22555;-74
2022/01/06 08:41:00;;;;;;;;;;;;;;;;;;;;;
2022/01/06 08:47:29;;;;;;;5.10;3.50;;;;;;;2.34;81.03;97886.47;219929;1281;22738;-74
2022/01/06 08:53:35;;;;;;;3.20;2.40;;;;;;;2.26;81.59;97896.09;220316;1280;24388;-74
2022/01/06 08:59:23;;;;;;;4.60;2.70;;;;;;;2.11;81.74;97908.16;220207;1280;22560;-74
2022/01/06 09:05:31;;;;;;;;;;;;;;;;;;;;;
2022/01/06 09:11:03;;;;;;;;;;;;;;;;;;;;;
2022/01/06 09:16:43;;;;;;;2.70;1.60;;;;;;;2.01;82.54;97923.63;220192;1281;22545;-74
2022/01/06 09:23:13;;;;;;;;;;;;;;;;;;;;;
2022/01/06 09:28:46;;;;;;;3.70;2.10;;;;;;;2.16;82.34;97935.52;219796;1279;25391;-74
2022/01/06 09:34:58;;;;;;;3.50;2.70;;;;;;;2.18;82.32;97944.24;219954;1279;22581;-73
2022/01/06 09:40:11;;;;;;;3.40;2.10;;;;;;;2.09;81.99;97956.02;219825;1279;25272;-74
2022/01/06 09:45:50;;;;;;;2.70;1.40;;;;;;;1.96;81.74;97960.46;219849;1279;23958;-74
2022/01/06 09:51:33;;;;;;;2.20;1.50;;;;;;;1.88;81.61;97961.88;220117;1280;26412;-75
2022/01/06 09:57:32;;;;;;;1.80;0.90;;;;;;;1.92;81.03;97970.67;220060;1281;25485;-74
2022/01/06 10:03:22;;;;;;;1.30;0.70;;;;;;;1.93;78.62;97988.27;219880;1281;23327;-74
2022/01/06 10:14:41;;;;;;;;;;;;;;;;;;;;;
2022/01/06 10:21:05;;;;;;;;;;;;;;;;;;;;;
2022/01/06 10:27:09;;;;;;;2.20;1.00;;;;;;;1.72;76.62;98023.42;220205;1279;22618;-74
2022/01/06 10:32:39;;;;;;;;;;;;;;;;;;;;;
2022/01/06 10:38:42;;;;;;;;;;;;;;;;;;;;;
2022/01/06 10:45:25;;;;;;;;;;;;;;;;;;;;;
2022/01/06 10:51:44;;;;;;;1.90;1.20;;;;;;;1.75;75.85;98048.02;219950;1280;22607;-74
2022/01/06 10:58:13;;;;;;;;;;;;;;;;;;;;;
2022/01/06 11:18:33;;;;;;;3.00;1.20;;;;;;;1.38;73.05;98094.47;219812;1281;24258;-75
2022/01/06 11:31:17;;;;;;;1.80;1.10;;;;;;;1.52;69.17;98112.43;220376;1279;22562;-75
2022/01/06 11:36:44;;;;;;;1.70;0.80;;;;;;;1.62;68.13;98115.20;220422;1279;25222;-75
2022/01/06 11:42:42;;;;;;;2.10;0.80;;;;;;;1.76;67.00;98123.60;220529;1279;24172;-74
2022/01/06 11:48:37;;;;;;;;;;;;;;;;;;;;;
2022/01/06 11:54:38;;;;;;;;;;;;;;;;;;;;;
2022/01/06 12:00:48;;;;;;;2.30;1.00;;;;;;;1.92;65.86;98133.92;220610;1279;22502;-74
2022/01/06 12:06:01;;;;;;;3.30;1.30;;;;;;;1.78;66.17;98146.70;220554;1279;23288;-73
2022/01/06 12:11:42;;;;;;;2.70;1.20;;;;;;;1.66;66.48;98158.29;220277;1281;22523;-74
2022/01/06 12:17:58;;;;;;;2.20;0.80;;;;;;;1.34;65.97;98179.14;220309;1279;26405;-74
2022/01/06 12:23:15;;;;;;;1.00;0.50;;;;;;;0.94;64.95;98212.67;220316;1281;22718;-76
2022/01/06 12:28:17;;;;;;;1.70;0.90;;;;;;;0.74;63.67;98205.33;220075;1279;22568;-75
2022/01/06 12:33:32;;;;;;;1.60;1.20;;;;;;;0.64;63.08;98216.34;219923;1279;23497;-75
2022/01/06 12:39:38;;;;;;;1.70;0.70;;;;;;;0.46;62.32;98240.48;220026;1279;24240;-75
2022/01/06 12:45:52;;;;;;;;;;;;;;;;;;;;;
2022/01/06 12:51:30;;;;;;;2.30;0.80;;;;;;;-0.08;62.03;98265.27;220130;1279;26152;-74
2022/01/06 12:57:01;;;;;;;0.70;0.50;;;;;;;-0.25;62.45;98276.52;220323;1279;22723;-74
2022/01/06 13:02:27;;;;;;;1.50;0.70;;;;;;;-0.35;63.56;98280.56;220453;1279;25452;-74
2022/01/06 13:08:20;;;;;;;3.20;0.80;;;;;;;-0.34;64.87;98300.20;220240;1279;26043;-73
2022/01/06 13:14:52;;;;;;;1.30;0.90;;;;;;;-0.30;65.34;98300.50;220272;1279;22595;-74
2022/01/06 13:20:24;;;;;;;1.80;1.00;;;;;;;-0.26;65.96;98314.23;220055;1279;22573;-74
2022/01/06 13:25:35;;;;;;;2.40;0.80;;;;;;;-0.28;65.22;98341.68;220190;1279;25399;-74
2022/01/06 13:30:43;;;;;;;2.00;0.90;;;;;;;-0.35;65.56;98347.35;220216;1279;25592;-72
2022/01/06 13:36:38;;;;;;;2.40;0.80;;;;;;;-0.36;65.23;98342.17;220137;1279;25290;-74
2022/01/06 13:41:58;;;;;;;1.40;0.70;;;;;;;-0.45;64.95;98352.23;220112;1279;22986;-73
2022/01/06 13:53:53;;;;;;;3.30;1.00;;;;;;;-0.60;64.44;98373.91;219897;1279;22569;-75
2022/01/06 13:59:23;;;;;;;1.80;0.60;;;;;;;-0.56;64.53;98384.76;220101;1279;24094;-73
2022/01/06 14:05:11;;;;;;;2.80;0.80;;;;;;;-0.47;63.95;98405.95;220343;1278;25334;-73
2022/01/06 14:11:01;;;;;;;3.40;1.40;;;;;;;-0.45;64.51;98410.06;220431;1279;22733;-73
2022/01/06 14:16:27;;;;;;;2.50;0.70;;;;;;;-0.48;65.17;98424.83;220266;1279;24153;-74
2022/01/06 14:22:18;;;;;;;1.50;0.80;;;;;;;-0.52;65.94;98428.42;219998;1279;22599;-74
2022/01/06 14:27:33;;;;;;;1.50;1.00;;;;;;;-0.53;65.97;98439.28;219614;1282;25822;-73
2022/01/06 14:32:38;;;;;;;2.40;1.10;;;;;;;-0.59;65.73;98448.30;219473;1282;22766;-73
2022/01/06 14:37:47;;;;;;;2.10;0.80;;;;;;;-0.63;66.16;98450.51;220092;1282;22513;-73
2022/01/06 14:42:50;;;;;;;2.70;1.20;;;;;;;-0.67;65.97;98458.54;219977;1282;24226;-73
2022/01/06 14:48:02;;;;;;;4.80;1.20;;;;;;;-0.70;66.41;98464.27;219695;1282;23038;-73
2022/01/06 14:53:15;;;;;;;2.10;1.10;;;;;;;-0.77;67.17;98472.59;219739;1282;22731;-74
2022/01/06 14:58:18;;;;;;;3.50;1.10;;;;;;;-0.87;67.54;98480.48;220587;1279;22562;-74
2022/01/06 15:03:22;;;;;;;3.70;1.20;;;;;;;-0.96;67.83;98491.80;220535;1279;23911;-76
2022/01/06 15:08:41;;;;;;;2.10;1.10;;;;;;;-1.05;68.13;98499.13;220556;1279;22551;-73
2022/01/06 15:13:48;;;;;;;4.20;1.30;;;;;;;-1.12;69.00;98506.37;220362;1279;22574;-74
2022/01/06 15:19:00;;;;;;;4.60;1.50;;;;;;;-1.10;69.41;98519.77;220240;1279;23152;-73
2022/01/06 15:24:30;;;;;;;3.10;1.40;;;;;;;-1.04;69.91;98535.15;220036;1279;25783;-74
2022/01/06 15:35:53;;;;;;;3.40;1.00;;;;;;;-1.16;71.57;98551.90;219833;1279;22686;-73
2022/01/06 15:41:09;;;;;;;4.30;1.70;;;;;;;-1.30;72.17;98561.58;220005;1279;22579;-73
2022/01/06 15:46:46;;;;;;;;;;;;;;;;;;;;;
2022/01/06 15:52:18;;;;;;;3.40;1.80;;;;;;;-1.55;73.51;98575.85;219802;1279;24252;-73
2022/01/06 16:09:11;;;;;;;4.30;1.90;;;;;;;-1.54;74.46;98607.77;220094;1279;22560;-73
2022/01/06 16:14:26;;;;;;;7.00;2.30;;;;;;;-1.64;74.49;98610.54;219883;1279;25393;-74
2022/01/06 16:19:41;;;;;;;5.10;2.40;;;;;;;-1.74;75.01;98613.00;219929;1279;22614;-74
2022/01/06 16:24:44;;;;;;;7.30;3.70;;;;;;;-1.79;75.35;98615.77;219948;1279;23790;-72
2022/01/06 16:30:12;;;;;;;5.40;2.50;;;;;;;-1.80;75.78;98627.66;219997;1279;24247;-73
2022/01/06 16:35:14;;;;;;;7.70;3.20;;;;;;;-1.78;75.92;98636.66;220123;1278;22739;-73
2022/01/06 16:40:17;;;;;;;5.50;2.50;;;;;;;-1.75;75.83;98640.70;220132;1279;22486;-73
2022/01/06 16:45:43;;;;;;;9.10;3.40;;;;;;;-1.72;76.01;98649.73;219974;1279;22660;-73
2022/01/06 16:50:55;;;;;;;11.30;3.60;;;;;;;-1.71;76.02;98649.17;220128;1279;22536;-73
2022/01/06 16:56:07;;;;;;;6.50;2.80;;;;;;;-1.69;76.18;98651.23;220213;1279;22581;-74
2022/01/06 17:01:22;;;;;;;6.10;2.80;;;;;;;-1.66;76.12;98655.83;219978;1279;22554;-74
2022/01/06 17:06:40;;;;;;;6.20;3.00;;;;;;;-1.64;76.19;98659.77;219952;1279;25271;-73
2022/01/06 17:11:43;;;;;;;5.10;2.30;;;;;;;-1.59;76.17;98666.61;220201;1279;24245;-73
2022/01/06 17:16:49;;;;;;;6.00;2.30;;;;;;;-1.52;75.87;98673.41;219981;1279;22700;-73
2022/01/06 17:21:58;;;;;;;6.60;2.80;;;;;;;-1.46;75.86;98680.11;219730;1279;22796;-73
2022/01/06 17:27:10;;;;;;;4.70;2.60;;;;;;;-1.40;75.47;98694.72;220054;1279;22581;-74
2022/01/06 17:32:18;;;;;;;8.50;2.50;;;;;;;-1.34;75.71;98702.85;219884;1279;22891;-74
2022/01/06 17:37:31;;;;;;;5.80;2.20;;;;;;;-1.27;75.55;98712.17;220151;1279;22566;-73
2022/01/06 17:42:36;;;;;;;9.20;3.10;;;;;;;-1.23;75.51;98724.94;220008;1279;25892;-74
2022/01/06 17:47:38;;;;;;;5.70;2.50;;;;;;;-1.23;75.47;98738.80;219963;1279;23172;-74
2022/01/06 17:52:48;;;;;;;6.80;1.80;;;;;;;-1.25;75.41;98750.77;220199;1279;24719;-74
2022/01/06 17:57:59;;;;;;;6.20;2.00;;;;;;;-1.31;75.05;98757.92;219886;1279;25864;-72
2022/01/06 18:03:18;;;;;;;6.80;2.40;;;;;;;-1.44;75.03;98769.80;220267;1279;22586;-72
2022/01/06 18:13:26;;;;;;;5.30;2.00;;;;;;;-1.67;75.01;98784.95;220021;1279;22604;-74
2022/01/06 18:18:32;;;;;;;5.30;2.10;;;;;;;-1.76;74.95;98790.48;219896;1279;23823;-74
2022/01/06 18:23:34;;;;;;;5.70;1.90;;;;;;;-1.81;74.89;98803.54;219964;1279;22579;-73
2022/01/06 18:28:38;;;;;;;5.60;2.10;;;;;;;-1.83;74.91;98805.92;219952;1279;25439;-73
2022/01/06 18:33:42;;;;;;;8.50;2.50;;;;;;;-1.87;74.90;98805.38;219969;1279;22583;-73
2022/01/06 18:38:49;;;;;;;5.00;1.80;;;;;;;-1.91;74.95;98811.68;219718;1279;22586;-74
2022/01/06 18:43:52;;;;;;;5.50;1.90;;;;;;;-1.94;74.62;98814.16;219461;1279;22582;-73
2022/01/06 18:49:02;;;;;;;5.40;2.30;;;;;;;-1.95;74.69;98815.29;219667;1279;23201;-73
2022/01/06 18:54:10;;;;;;;6.20;2.20;;;;;;;-1.97;74.61;98825.59;219888;1279;22553;-73
2022/01/06 18:59:36;;;;;;;8.30;2.30;;;;;;;-2.00;74.29;98841.07;219767;1279;22730;-73
2022/01/06 19:04:59;;;;;;;4.90;2.50;;;;;;;-2.01;74.38;98850.84;219599;1279;24382;-73
2022/01/06 19:10:20;;;;;;;5.10;2.30;;;;;;;-2.00;74.17;98853.83;219519;1279;26586;-73
2022/01/06 19:15:28;;;;;;;3.60;2.10;;;;;;;-1.98;74.15;98854.20;219797;1279;26675;-73
2022/01/06 19:20:36;;;;;;;4.90;2.10;;;;;;;-1.99;74.01;98860.74;219791;1279;25291;-73
2022/01/06 19:25:42;;;;;;;5.40;2.10;;;;;;;-2.03;74.00;98864.30;219708;1279;23259;-74
2022/01/06 19:31:10;;;;;;;5.00;2.00;;;;;;;-2.09;73.48;98875.52;219442;1281;22759;-73
2022/01/06 19:36:25;;;;;;;4.30;1.80;;;;;;;-2.13;73.34;98885.19;219610;1279;22636;-73
2022/01/06 19:41:35;;;;;;;3.50;1.20;;;;;;;-2.17;73.06;98899.68;219659;1279;25959;-72
2022/01/06 19:47:01;;;;;;;3.50;1.60;;;;;;;-2.18;72.60;98906.51;219800;1279;26443;-72
2022/01/06 19:52:07;;;;;;;4.00;1.50;;;;;;;-2.20;72.56;98911.16;219633;1279;22565;-73
2022/01/06 19:57:27;;;;;;;4.50;1.90;;;;;;;-2.24;72.30;98911.27;219672;1279;22666;-72
2022/01/06 20:02:33;;;;;;;3.10;1.40;;;;;;;-2.29;72.37;98922.45;219652;1279;22685;-74
2022/01/06 20:07:39;;;;;;;4.40;1.50;;;;;;;-2.35;72.27;98918.83;219648;1279;22798;-73
2022/01/06 20:12:42;;;;;;;2.90;1.30;;;;;;;-2.42;72.55;98921.98;219579;1279;25481;-73
2022/01/06 20:17:48;;;;;;;4.90;1.90;;;;;;;-2.46;72.77;98933.02;219663;1279;23916;-73
2022/01/06 20:22:53;;;;;;;5.00;2.00;;;;;;;-2.51;72.85;98944.50;219338;1278;410019;-73
2022/01/06 20:28:06;;;;;;;6.30;2.50;;;;;;;-2.57;73.30;98958.41;219988;1279;22593;-74
2022/01/06 20:33:21;;;;;;;10.50;2.80;;;;;;;-2.63;73.36;98963.89;219871;1279;22892;-74
2022/01/06 20:38:35;;;;;;;7.50;3.10;;;;;;;-2.68;73.38;98972.59;219617;1279;23391;-72
2022/01/06 20:43:49;;;;;;;10.20;3.70;;;;;;;-2.72;73.84;98976.96;219847;1279;22972;-73
2022/01/06 20:54:20;;;;;;;10.80;4.50;;;;;;;-2.83;74.09;98981.26;219772;1279;22553;-72
2022/01/06 20:59:25;;;;;;;8.60;3.50;;;;;;;-2.89;74.44;98984.96;219791;1279;23417;-73
2022/01/06 21:04:28;;;;;;;8.00;2.90;;;;;;;-2.94;74.44;98989.69;219579;1279;25401;-73
2022/01/06 21:09:32;;;;;;;9.30;3.40;;;;;;;-2.93;74.61;98987.41;219594;1279;26596;-72
2022/01/06 21:14:38;;;;;;;7.70;3.30;;;;;;;-2.93;74.55;98992.83;219723;1279;22814;-73
2022/01/06 21:20:00;;;;;;;8.70;4.00;;;;;;;-2.95;74.52;99000.32;219745;1279;22645;-74
2022/01/06 21:25:12;;;;;;;11.10;5.40;;;;;;;-2.99;74.72;99011.42;219703;1279;25303;-73
2022/01/06 21:30:32;;;;;;;15.80;7.10;;;;;;;-3.08;74.57;99021.30;219595;1279;22788;-73
2022/01/06 21:35:42;;;;;;;19.30;7.80;;;;;;;-3.19;74.51;99030.23;219548;1279;22624;-74
2022/01/06 21:40:44;;;;;;;20.70;7.40;;;;;;;-3.31;74.61;99034.67;219544;1279;25385;-73
2022/01/06 21:45:46;;;;;;;14.60;7.20;;;;;;;-3.42;74.98;99031.86;219510;1277;25690;-73
2022/01/06 21:50:49;;;;;;;19.00;6.80;;;;;;;-3.50;75.14;99030.52;219652;1279;25675;-72
2022/01/06 21:56:00;;;;;;;18.00;8.20;;;;;;;-3.59;75.16;99051.35;219678;1278;24225;-72
2022/01/06 22:01:03;;;;;;;19.80;8.30;;;;;;;-3.66;75.38;99056.73;219562;1279;22578;-74
2022/01/06 22:06:09;;;;;;;15.20;6.70;;;;;;;-3.71;75.55;99068.05;219361;1279;22579;-72
2022/01/06 22:11:28;;;;;;;14.90;8.20;;;;;;;-3.79;75.56;99075.31;219608;1279;22629;-73
2022/01/06 22:16:40;;;;;;;19.30;8.50;;;;;;;-3.86;75.65;99071.23;219391;1279;22621;-73
2022/01/06 22:21:43;;;;;;;14.20;6.60;;;;;;;-3.91;75.82;99077.52;219588;1279;23008;-73
2022/01/06 22:26:45;;;;;;;13.00;6.90;;;;;;;-3.96;75.96;99078.88;219660;1279;22737;-73
2022/01/06 22:31:51;;;;;;;18.50;9.20;;;;;;;-3.99;76.03;99083.45;219837;1279;22781;-73
2022/01/06 22:36:55;;;;;;;14.20;7.50;;;;;;;-4.04;76.23;99091.67;219695;1279;22852;-73
2022/01/06 22:42:13;;;;;;;18.40;8.90;;;;;;;-4.11;76.25;99099.57;219714;1279;22849;-73
2022/01/06 22:47:18;;;;;;;15.90;8.20;;;;;;;-4.17;76.34;99106.38;219586;1279;22726;-73
2022/01/06 22:52:24;;;;;;;19.60;10.00;;;;;;;-4.21;76.51;99116.63;219734;1279;22684;-74
2022/01/06 22:57:35;;;;;;;21.70;10.50;;;;;;;-4.23;76.82;99116.21;219754;1279;22853;-73
2022/01/06 23:03:00;;;;;;;19.70;10.00;;;;;;;-4.22;77.04;99122.74;219673;1279;22563;-73
2022/01/06 23:08:06;;;;;;;19.30;10.30;;;;;;;-4.23;77.07;99121.24;219555;1279;22639;-76
2022/01/06 23:13:43;;;;;;;21.10;9.30;;;;;;;-4.26;77.04;99121.73;219713;1279;22631;-73
2022/01/06 23:18:55;;;;;;;21.10;10.00;;;;;;;-4.27;77.26;99130.57;219757;1279;24147;-73
2022/01/06 23:24:31;;;;;;;;;;;;;;;;;;;;;
2022/01/06 23:29:49;;;;;;;23.00;11.60;;;;;;;-4.29;77.30;99141.16;219510;1279;22737;-73
2022/01/06 23:34:54;;;;;;;22.30;10.90;;;;;;;-4.31;77.42;99141.52;219608;1279;25748;-73
2022/01/06 23:40:09;;;;;;;22.10;11.00;;;;;;;-4.30;77.65;99141.23;219334;1279;22733;-73
2022/01/06 23:45:18;;;;;;;21.00;11.30;;;;;;;-4.32;77.45;99149.71;219608;1278;22836;-72
2022/01/06 23:50:23;;;;;;;26.70;12.90;;;;;;;-4.42;77.26;99154.49;219632;1279;23331;-73
2022/01/06 23:55:25;;;;;;;27.70;13.40;;;;;;;-4.52;77.30;99149.25;219729;1279;22831;-74
